Time;durP1;ratioP1;P1;durP2;ratioP2;P2;SDS_P1;SDS_P2;PMS_P1;PMS_P2;Temp;Humidity;BMP_temperature;BMP_pressure;BME280_temperature;BME280_humidity;BME280_pressure;Samples;Min_cycle;Max_cycle;Signal;HPM_P1;HPM_P2
2022/04/11 00:00:00;;;;;;;7.97;2.33;;;;;;;;;;4877462;29;20036;-90
2022/04/11 00:02:27;;;;;;;7.32;2.08;;;;;;;;;;4878126;29;20040;-89
2022/04/11 00:04:53;;;;;;;3.88;2.22;;;;;;;;;;4884425;29;20040;-89
2022/04/11 00:07:19;;;;;;;4.85;2.13;;;;;;;;;;4889052;29;20044;-89
2022/04/11 00:09:46;;;;;;;5.78;1.83;;;;;;;;;;4878295;29;20048;-89
2022/04/11 00:12:14;;;;;;;4.05;1.70;;;;;;;;;;4880327;29;20075;-89
2022/04/11 00:14:41;;;;;;;6.68;2.10;;;;;;;;;;4879534;29;20128;-90
2022/04/11 00:17:07;;;;;;;3.92;2.42;;;;;;;;;;4874294;29;20036;-90
2022/04/11 00:19:33;;;;;;;3.08;1.85;;;;;;;;;;4875954;29;20042;-90
2022/04/11 00:22:02;;;;;;;5.93;2.22;;;;;;;;;;4878934;29;20489;-89
2022/04/11 00:24:28;;;;;;;4.47;1.77;;;;;;;;;;4874541;29;20044;-90
2022/04/11 00:26:55;;;;;;;4.72;1.88;;;;;;;;;;4896010;29;20184;-91
2022/04/11 00:29:21;;;;;;;3.72;1.67;;;;;;;;;;4882658;29;20044;-90
2022/04/11 00:31:51;;;;;;;8.73;2.15;;;;;;;;;;4889231;29;20084;-91
2022/04/11 00:34:20;;;;;;;4.38;2.25;;;;;;;;;;4879361;29;20048;-89
2022/04/11 00:36:46;;;;;;;5.65;2.15;;;;;;;;;;4876164;29;20203;-90
2022/04/11 00:39:12;;;;;;;2.72;1.70;;;;;;;;;;4872656;29;20040;-90
2022/04/11 00:41:39;;;;;;;3.65;2.08;;;;;;;;;;4896159;29;20442;-90
2022/04/11 00:44:06;;;;;;;8.77;1.65;;;;;;;;;;4879542;29;20074;-91
2022/04/11 00:46:33;;;;;;;6.15;1.80;;;;;;;;;;4875743;29;20466;-91
2022/04/11 00:48:59;;;;;;;3.33;1.50;;;;;;;;;;4881917;29;20036;-91
2022/04/11 00:51:26;;;;;;;15.77;2.53;;;;;;;;;;4875347;29;20095;-91
2022/04/11 00:53:53;;;;;;;1.63;1.23;;;;;;;;;;4889667;29;20108;-90
2022/04/11 00:56:20;;;;;;;2.95;1.65;;;;;;;;;;4879130;29;20036;-91
2022/04/11 00:58:47;;;;;;;5.65;1.48;;;;;;;;;;4878619;29;20048;-91
2022/04/11 01:01:14;;;;;;;4.65;1.45;;;;;;;;;;4882133;29;20036;-90
2022/04/11 01:03:41;;;;;;;7.78;1.75;;;;;;;;;;4883179;29;20044;-90
2022/04/11 01:06:07;;;;;;;13.07;2.10;;;;;;;;;;4883369;29;20039;-90
2022/04/11 01:08:34;;;;;;;3.55;1.55;;;;;;;;;;4883231;29;20036;-91
2022/04/11 01:11:01;;;;;;;5.05;1.80;;;;;;;;;;4876369;29;20036;-91
2022/04/11 01:13:31;;;;;;;5.93;2.22;;;;;;;;;;4890470;29;20131;-90
2022/04/11 01:15:58;;;;;;;10.25;2.20;;;;;;;;;;4882265;29;20039;-90
2022/04/11 01:18:24;;;;;;;9.68;2.30;;;;;;;;;;4884305;29;20088;-91
2022/04/11 01:20:51;;;;;;;6.50;1.90;;;;;;;;;;4881855;29;20082;-91
2022/04/11 01:23:17;;;;;;;4.20;1.83;;;;;;;;;;4878809;29;20036;-90
2022/04/11 01:25:49;;;;;;;12.00;2.13;;;;;;;;;;4882945;29;20036;-90
2022/04/11 01:28:15;;;;;;;4.78;2.08;;;;;;;;;;4887803;29;20256;-91
2022/04/11 01:30:45;;;;;;;8.20;2.47;;;;;;;;;;4889190;29;20079;-90
2022/04/11 01:33:20;;;;;;;3.95;1.88;;;;;;;;;;4896334;29;20458;-90
2022/04/11 01:35:46;;;;;;;4.75;2.03;;;;;;;;;;4885646;29;20036;-90
2022/04/11 01:38:13;;;;;;;6.20;2.45;;;;;;;;;;4886675;29;20040;-90
2022/04/11 01:41:01;;;;;;;5.45;2.15;;;;;;;;;;4889434;29;20091;-90
2022/04/11 01:43:27;;;;;;;7.60;2.75;;;;;;;;;;4900252;29;20129;-91
2022/04/11 01:45:54;;;;;;;3.40;1.83;;;;;;;;;;4882894;29;20036;-90
2022/04/11 01:48:20;;;;;;;5.13;2.15;;;;;;;;;;4885411;29;20035;-91
2022/04/11 01:50:47;;;;;;;8.25;2.17;;;;;;;;;;4879528;29;20161;-91
2022/04/11 01:53:14;;;;;;;7.07;2.30;;;;;;;;;;4881841;29;20048;-90
2022/04/11 01:55:41;;;;;;;8.15;2.13;;;;;;;;;;4880769;29;20036;-91
2022/04/11 01:58:08;;;;;;;6.00;2.38;;;;;;;;;;4883070;29;20040;-90
2022/04/11 02:00:37;;;;;;;9.52;1.58;;;;;;;;;;4881825;29;20032;-90
2022/04/11 02:03:05;;;;;;;7.45;2.65;;;;;;;;;;4881494;29;20036;-90
2022/04/11 02:05:32;;;;;;;13.40;2.40;;;;;;;;;;4897118;29;20048;-90
2022/04/11 02:07:59;;;;;;;4.65;2.20;;;;;;;;;;4888097;29;20501;-89
2022/04/11 02:10:26;;;;;;;8.18;2.63;;;;;;;;;;4883263;29;20048;-91
2022/04/11 02:12:52;;;;;;;4.68;1.67;;;;;;;;;;4880046;29;20188;-90
2022/04/11 02:15:19;;;;;;;3.30;1.52;;;;;;;;;;4882226;29;20035;-90
2022/04/11 02:17:50;;;;;;;5.45;1.75;;;;;;;;;;4865814;29;20101;-90
2022/04/11 02:20:17;;;;;;;5.75;1.95;;;;;;;;;;4881845;29;20051;-90
2022/04/11 02:22:45;;;;;;;6.57;2.00;;;;;;;;;;4897462;29;20541;-90
2022/04/11 02:25:12;;;;;;;3.65;1.90;;;;;;;;;;4884820;29;20059;-91
2022/04/11 02:27:41;;;;;;;4.45;1.80;;;;;;;;;;4893585;29;20096;-90
2022/04/11 02:30:12;;;;;;;13.20;2.10;;;;;;;;;;4884306;29;20036;-91
2022/04/11 02:32:38;;;;;;;8.57;2.33;;;;;;;;;;4882400;29;20051;-90
2022/04/11 02:35:05;;;;;;;4.00;2.42;;;;;;;;;;4877381;29;20561;-90
2022/04/11 02:37:34;;;;;;;10.90;2.33;;;;;;;;;;4880382;29;20075;-91
2022/04/11 02:40:01;;;;;;;4.40;2.22;;;;;;;;;;4896089;29;20047;-90
2022/04/11 02:42:29;;;;;;;9.68;1.92;;;;;;;;;;4881014;29;20044;-90
2022/04/11 02:44:55;;;;;;;4.55;2.05;;;;;;;;;;4880662;29;20052;-89
2022/04/11 02:47:22;;;;;;;5.15;2.45;;;;;;;;;;4897321;29;20130;-90
2022/04/11 02:49:48;;;;;;;11.40;3.92;;;;;;;;;;4899443;29;20083;-90
2022/04/11 02:52:15;;;;;;;7.60;2.72;;;;;;;;;;4880851;29;20043;-90
2022/04/11 02:54:42;;;;;;;5.95;2.75;;;;;;;;;;4882752;29;20036;-90
2022/04/11 02:57:08;;;;;;;7.72;3.28;;;;;;;;;;4879819;29;20513;-89
2022/04/11 02:59:38;;;;;;;5.90;2.83;;;;;;;;;;4902532;29;20497;-90
2022/04/11 03:02:05;;;;;;;6.50;3.00;;;;;;;;;;4880854;29;20044;-90
2022/04/11 03:04:31;;;;;;;6.97;3.25;;;;;;;;;;4880735;29;20159;-90
2022/04/11 03:06:58;;;;;;;11.40;3.50;;;;;;;;;;4883001;29;20056;-90
2022/04/11 03:09:24;;;;;;;7.82;3.28;;;;;;;;;;4881854;29;20658;-90
2022/04/11 03:11:50;;;;;;;7.82;3.10;;;;;;;;;;4897052;29;20126;-90
2022/04/11 03:14:17;;;;;;;10.95;3.42;;;;;;;;;;4881686;29;20036;-90
2022/04/11 03:16:43;;;;;;;11.45;3.83;;;;;;;;;;4880100;29;20460;-90
2022/04/11 03:19:10;;;;;;;6.30;3.40;;;;;;;;;;4883561;29;20099;-90
2022/04/11 03:21:37;;;;;;;6.85;2.78;;;;;;;;;;4881030;29;20036;-90
2022/04/11 03:24:04;;;;;;;6.85;2.63;;;;;;;;;;4881579;29;20040;-90
2022/04/11 03:26:31;;;;;;;11.50;2.97;;;;;;;;;;4870058;29;20047;-93
2022/04/11 03:28:57;;;;;;;15.45;3.20;;;;;;;;;;4880107;29;20039;-91
2022/04/11 03:31:29;;;;;;;8.85;3.15;;;;;;;;;;4876482;29;20044;-90
2022/04/11 03:33:58;;;;;;;5.72;2.88;;;;;;;;;;4895527;29;20131;-90
2022/04/11 03:36:25;;;;;;;8.40;2.80;;;;;;;;;;4879751;29;20099;-90
2022/04/11 03:38:53;;;;;;;6.68;3.30;;;;;;;;;;4877896;29;20220;-90
2022/04/11 03:41:23;;;;;;;3.78;2.72;;;;;;;;;;4878718;29;20048;-90
2022/04/11 03:43:52;;;;;;;13.35;3.10;;;;;;;;;;4876532;29;20083;-90
2022/04/11 03:46:18;;;;;;;4.35;2.67;;;;;;;;;;4887319;29;20036;-90
2022/04/11 03:48:45;;;;;;;5.80;2.72;;;;;;;;;;4880251;29;20490;-91
2022/04/11 03:51:12;;;;;;;5.68;2.95;;;;;;;;;;4880220;29;20036;-90
2022/04/11 03:53:38;;;;;;;3.92;2.30;;;;;;;;;;4879219;29;20036;-90
2022/04/11 03:56:07;;;;;;;8.10;2.80;;;;;;;;;;4897498;29;20044;-90
2022/04/11 03:58:39;;;;;;;5.55;2.95;;;;;;;;;;4880545;29;20042;-90
2022/04/11 04:01:05;;;;;;;4.50;2.63;;;;;;;;;;4877607;29;20039;-90
2022/04/11 04:03:32;;;;;;;6.70;2.85;;;;;;;;;;4880879;29;20036;-90
2022/04/11 04:05:58;;;;;;;5.70;2.50;;;;;;;;;;4896188;29;20044;-90
2022/04/11 04:08:25;;;;;;;6.05;3.08;;;;;;;;;;4859992;29;20048;-90
2022/04/11 04:10:51;;;;;;;5.97;3.15;;;;;;;;;;4879420;29;20036;-90
2022/04/11 04:13:17;;;;;;;5.43;2.55;;;;;;;;;;4899415;29;20084;-91
2022/04/11 04:15:47;;;;;;;6.22;3.50;;;;;;;;;;4879087;29;20094;-90
2022/04/11 04:18:16;;;;;;;6.63;3.28;;;;;;;;;;4908824;29;20502;-90
2022/04/11 04:20:43;;;;;;;11.48;3.30;;;;;;;;;;4879174;29;20040;-89
2022/04/11 04:23:10;;;;;;;15.32;3.03;;;;;;;;;;4892620;29;20501;-90
2022/04/11 04:25:39;;;;;;;4.38;2.97;;;;;;;;;;4874651;29;20036;-89
2022/04/11 04:28:06;;;;;;;4.13;2.70;;;;;;;;;;4891384;29;20426;-89
2022/04/11 04:30:35;;;;;;;8.80;3.47;;;;;;;;;;4879034;29;20075;-90
2022/04/11 04:33:13;;;;;;;4.53;2.75;;;;;;;;;;4904623;29;20099;-90
2022/04/11 04:35:46;;;;;;;6.05;2.65;;;;;;;;;;4879234;29;20041;-90
2022/04/11 06:26:54;;;;;;;12.65;6.97;;;;;;;;;;4922099;29;20086;-90
2022/04/11 06:29:36;;;;;;;16.75;7.20;;;;;;;;;;4869392;29;20270;-91
2022/04/11 06:32:50;;;;;;;10.98;5.30;;;2.20;99.90;;;;;;4888183;29;20087;-90
2022/04/11 06:35:25;;;;;;;8.07;4.93;;;2.50;99.90;;;;;;4885939;29;20292;-90
2022/04/11 06:38:05;;;;;;;8.30;5.45;;;2.50;99.90;;;;;;4890507;29;20584;-90
2022/04/11 06:41:01;;;;;;;11.40;5.40;;;;;;;;;;4912811;29;20044;-91
2022/04/11 06:44:24;;;;;;;13.20;6.22;;;;;;;;;;4871306;29;20526;-90
2022/04/11 06:47:42;;;;;;;;;;;;;;;;;;;;;
2022/04/11 06:51:01;;;;;;;;;;;;;;;;;;;;;
2022/04/11 06:58:03;;;;;;;;;;;;;;;;;;;;;
2022/04/11 14:24:48;;;;;;;;;;;;;;;;;;;;;
2022/04/11 16:15:27;;;;;;;;;;;;;;;;;;;;;
2022/04/11 16:18:57;;;;;;;9.38;5.95;;;19.80;49.70;;;;;;4913791;29;20685;-91
2022/04/11 16:37:12;;;;;;;;;;;;;;;;;;;;;
2022/04/11 16:40:44;;;;;;;;;;;;;;;;;;;;;
